Winchester, TN (37398)

1:44 AM CDT on July 27, 2016 (GMT -0500)
Decherd | | Change Station

Elev 915 ft 35.20 °N, 86.09 °W | Updated 8 minutes ago

Clear
Clear
75.8 °F
Feels Like 76 °F
N
0.0
Wind Variable Wind from ENE
Gusts 0.0 mph

Today
High -- | Low -- °F
--% Chance of Precip.
Yesterday
High -- | Low -- °F
Precip. -- in
Pressure 30.03 in
Visibility 10.0 miles
Clouds Clear
Heat Index 76 °F
Dew Point 73 °F
Humidity 91%
Rainfall 0.00 in
Snow Depth Not available.
5:50 AM 7:51 PM
Last Quarter, 46% visible
METAR KBGF 270635Z AUTO 00000KT 10SM CLR 23/22 A3003 RMK
Pressure 30.03 in
Visibility 10.0 miles
Clouds Clear
Heat Index 76 °F
Dew Point 73 °F
Humidity 91%
Rainfall 0.00 in
Snow Depth Not available.
5:50 AM 7:51 PM
Last Quarter, 46% visible
METAR KBGF 270635Z AUTO 00000KT 10SM CLR 23/22 A3003 RMK

10-Day Weather Forecast

Almanac

Astronomy

Jul. 27, 2016 Rise Set
Actual Time
Civil Twilight
Nautical Twilight
Astronomical Twilight
Moon
Length of Visible Light
Length of Day
Tomorrow will be .
, % of the Moon is Illuminated

Today's Extremes

State Highs State Lows

Community

WunderPhotos

Upload Photos

1,927,818 photos uploaded!

WunderBlog® & News

Nearby

Air Quality

  Air Quality AQ Index Pollutant
Not available.

Snow Depth

Station Depth Elevation

Earthquake Activity

City Distance Mag. Time & Date
Minimum magnitude displayed is 2.5.

Coastal Water Temperatures

Place Temperature

Stations

Nearby Weather Stations

Station Location Temp. Windchill Dew Point Humidity Wind Precip. Elev Updated Type
                   

Watches & Warnings

There are currently no watches in effect.